Time;durP1;ratioP1;P1;durP2;ratioP2;P2;SDS_P1;SDS_P2;PMS_P1;PMS_P2;Temp;Humidity;BMP_temperature;BMP_pressure;BME280_temperature;BME280_humidity;BME280_pressure;Samples;Min_cycle;Max_cycle;Signal;HPM_P1;HPM_P2
2023/03/29 00:00:51;;;;;;;2.40;1.60;;;9.80;99.90;;;;;;5071965;28;20205;-58
2023/03/29 00:03:17;;;;;;;2.50;1.63;;;9.80;99.90;;;;;;5071937;28;20295;-57
2023/03/29 00:05:44;;;;;;;1.93;1.57;;;9.80;99.90;;;;;;5072179;28;20669;-58
2023/03/29 00:08:13;;;;;;;3.30;1.60;;;9.70;99.90;;;;;;5071360;28;20608;-58
2023/03/29 00:10:41;;;;;;;2.10;1.40;;;9.70;99.90;;;;;;5072321;28;20754;-58
2023/03/29 00:13:08;;;;;;;2.23;1.40;;;9.70;99.90;;;;;;5072554;28;20258;-58
2023/03/29 00:15:35;;;;;;;2.17;1.37;;;9.70;99.90;;;;;;5072183;28;20600;-58
2023/03/29 00:18:02;;;;;;;3.07;1.40;;;9.70;99.90;;;;;;5071540;28;20228;-57
2023/03/29 00:20:29;;;;;;;1.37;1.27;;;9.70;99.90;;;;;;5072094;28;20205;-58
2023/03/29 00:22:55;;;;;;;4.20;1.70;;;9.80;99.90;;;;;;5071671;28;20703;-57
2023/03/29 00:25:24;;;;;;;2.53;1.60;;;9.70;99.90;;;;;;5072203;28;20208;-59
2023/03/29 00:27:50;;;;;;;1.73;1.50;;;9.70;99.90;;;;;;5071778;28;20228;-58
2023/03/29 00:30:17;;;;;;;1.60;1.50;;;9.60;99.90;;;;;;5071769;28;20204;-58
2023/03/29 00:32:44;;;;;;;3.23;1.57;;;9.50;99.90;;;;;;5071833;28;20314;-58
2023/03/29 00:35:11;;;;;;;2.27;1.90;;;9.50;99.90;;;;;;5071816;28;20201;-58
2023/03/29 00:37:40;;;;;;;4.57;2.10;;;9.50;99.90;;;;;;5071996;28;20221;-58
2023/03/29 00:40:09;;;;;;;2.90;2.00;;;9.50;99.90;;;;;;5071636;28;20205;-57
2023/03/29 00:42:38;;;;;;;2.17;1.70;;;9.60;99.90;;;;;;5071851;28;20691;-57
2023/03/29 00:45:07;;;;;;;2.40;1.73;;;9.60;99.90;;;;;;5072490;28;20684;-59
2023/03/29 00:47:40;;;;;;;2.13;1.40;;;9.60;99.90;;;;;;5075256;28;20235;-58
2023/03/29 00:50:13;;;;;;;2.07;1.77;;;9.50;99.90;;;;;;5075538;28;20209;-58
2023/03/29 00:52:42;;;;;;;2.93;1.80;;;9.50;99.90;;;;;;5075354;28;20312;-58
2023/03/29 00:55:15;;;;;;;5.73;1.70;;;9.40;99.90;;;;;;5075236;28;20287;-57
2023/03/29 00:57:46;;;;;;;2.60;1.83;;;9.40;99.90;;;;;;5075096;28;20229;-58
2023/03/29 01:00:17;;;;;;;2.50;1.57;;;9.40;99.90;;;;;;5075155;28;20618;-58
2023/03/29 01:02:49;;;;;;;2.40;1.57;;;9.30;99.90;;;;;;5075800;28;20209;-58
2023/03/29 01:05:19;;;;;;;2.50;1.47;;;9.20;99.90;;;;;;5075170;28;20211;-58
2023/03/29 01:07:52;;;;;;;2.83;1.73;;;9.10;99.90;;;;;;5075040;28;20650;-60
2023/03/29 01:10:22;;;;;;;2.20;1.47;;;9.10;99.90;;;;;;5075208;28;20204;-58
2023/03/29 01:12:55;;;;;;;2.10;1.70;;;9.00;99.90;;;;;;5075220;28;20205;-58
2023/03/29 01:15:25;;;;;;;3.13;1.90;;;8.80;99.90;;;;;;5074862;28;20205;-58
2023/03/29 01:17:54;;;;;;;2.13;1.67;;;8.50;99.90;;;;;;5074741;28;20233;-57
2023/03/29 01:20:26;;;;;;;2.30;1.70;;;8.20;99.90;;;;;;5074955;28;20283;-58
2023/03/29 01:23:15;;;;;;;2.87;1.80;;;8.00;99.90;;;;;;5074802;28;20212;-57
2023/03/29 01:25:53;;;;;;;2.03;1.63;;;7.90;99.90;;;;;;5074822;28;20211;-58
2023/03/29 01:28:27;;;;;;;2.83;1.70;;;7.80;99.90;;;;;;5074378;28;20236;-58
2023/03/29 01:31:00;;;;;;;3.60;1.70;;;7.80;99.90;;;;;;5074587;28;20258;-58
2023/03/29 01:33:33;;;;;;;2.67;1.80;;;7.80;99.90;;;;;;5074527;28;20259;-58
2023/03/29 01:36:04;;;;;;;3.87;1.83;;;7.80;99.90;;;;;;5074645;28;20241;-58
2023/03/29 01:38:39;;;;;;;4.80;1.80;;;7.80;99.90;;;;;;5074503;28;20240;-58
2023/03/29 01:41:06;;;;;;;2.20;1.77;;;7.80;99.90;;;;;;5074567;28;20204;-58
2023/03/29 01:43:41;;;;;;;1.83;1.60;;;7.70;99.90;;;;;;5074872;28;20208;-58
2023/03/29 01:46:14;;;;;;;2.63;1.90;;;7.60;99.90;;;;;;5074370;28;20208;-58
2023/03/29 01:48:48;;;;;;;3.07;1.77;;;7.50;99.90;;;;;;5074442;28;20323;-58
2023/03/29 01:51:18;;;;;;;1.73;1.40;;;7.50;99.90;;;;;;5074863;28;20209;-58
2023/03/29 01:53:50;;;;;;;1.90;1.50;;;7.50;99.90;;;;;;5074707;28;20209;-58
2023/03/29 01:56:21;;;;;;;3.23;1.60;;;7.50;99.90;;;;;;5074795;28;20208;-58
2023/03/29 01:58:52;;;;;;;3.27;1.87;;;7.40;99.90;;;;;;5074007;28;20224;-58
2023/03/29 02:01:22;;;;;;;4.53;1.67;;;7.30;99.90;;;;;;5075372;28;20209;-58
2023/03/29 02:03:53;;;;;;;4.20;1.97;;;7.30;99.90;;;;;;5074401;28;20565;-58
2023/03/29 02:06:24;;;;;;;1.73;1.50;;;7.20;99.90;;;;;;5074219;28;20231;-58
2023/03/29 02:08:53;;;;;;;3.70;1.60;;;7.20;99.90;;;;;;5073841;28;20229;-58
2023/03/29 02:11:22;;;;;;;2.27;1.77;;;7.30;99.90;;;;;;5074972;28;20234;-58
2023/03/29 02:13:50;;;;;;;3.43;1.73;;;7.40;99.90;;;;;;5074649;28;20204;-58
2023/03/29 02:16:17;;;;;;;3.63;1.50;;;7.30;99.90;;;;;;5074727;28;20209;-57
2023/03/29 02:18:46;;;;;;;2.63;1.60;;;7.20;99.90;;;;;;5074391;28;20221;-58
2023/03/29 02:21:20;;;;;;;2.07;1.67;;;7.30;99.90;;;;;;5074407;28;20291;-57
2023/03/29 02:23:47;;;;;;;1.80;1.60;;;7.20;99.90;;;;;;5074528;28;20300;-58
2023/03/29 02:26:16;;;;;;;4.80;1.50;;;7.20;99.90;;;;;;5074387;28;20689;-58
2023/03/29 02:28:43;;;;;;;1.83;1.70;;;7.20;99.90;;;;;;5074376;28;20225;-58
2023/03/29 02:31:16;;;;;;;2.27;1.80;;;7.20;99.90;;;;;;5074809;28;20219;-58
2023/03/29 02:33:50;;;;;;;2.30;1.77;;;7.10;99.90;;;;;;5073891;28;20204;-58
2023/03/29 02:36:21;;;;;;;3.40;2.00;;;7.10;99.90;;;;;;5073645;28;20213;-57
2023/03/29 02:38:48;;;;;;;2.13;1.87;;;7.00;99.90;;;;;;5073218;28;20220;-58
2023/03/29 02:41:16;;;;;;;4.27;2.13;;;7.00;99.90;;;;;;5073795;28;20614;-58
2023/03/29 02:43:44;;;;;;;3.23;2.10;;;7.00;99.90;;;;;;5073739;28;20212;-57
2023/03/29 02:46:14;;;;;;;2.60;1.80;;;7.00;99.90;;;;;;5074202;28;20200;-58
2023/03/29 02:48:41;;;;;;;2.43;1.90;;;7.00;99.90;;;;;;5073732;28;20229;-58
2023/03/29 02:51:15;;;;;;;3.10;2.20;;;7.20;99.90;;;;;;5074082;28;20205;-58
2023/03/29 02:53:44;;;;;;;4.53;2.23;;;7.30;99.90;;;;;;5074112;28;20208;-58
2023/03/29 02:56:11;;;;;;;2.83;2.30;;;7.30;99.90;;;;;;5073833;28;20624;-57
2023/03/29 02:58:38;;;;;;;2.50;1.70;;;7.30;99.90;;;;;;5073500;28;20217;-58
2023/03/29 03:01:06;;;;;;;2.20;1.70;;;7.30;99.90;;;;;;5073988;28;20212;-57
2023/03/29 03:03:34;;;;;;;3.57;1.80;;;7.10;99.90;;;;;;5074329;28;20622;-58
2023/03/29 03:06:01;;;;;;;2.33;1.90;;;7.10;99.90;;;;;;5074461;28;20212;-58
2023/03/29 03:08:28;;;;;;;2.80;2.10;;;7.10;99.90;;;;;;5073330;28;20754;-58
2023/03/29 03:10:55;;;;;;;2.97;1.57;;;7.10;99.90;;;;;;5073693;28;20204;-58
2023/03/29 03:13:22;;;;;;;2.77;1.67;;;7.20;99.90;;;;;;5073720;28;20211;-58
2023/03/29 03:15:49;;;;;;;1.93;1.53;;;7.20;99.90;;;;;;5073788;28;20204;-58
2023/03/29 03:18:16;;;;;;;2.53;1.70;;;7.20;99.90;;;;;;5073432;28;20708;-58
2023/03/29 03:20:53;;;;;;;1.60;1.50;;;7.30;99.90;;;;;;5073882;28;20691;-58
2023/03/29 03:23:20;;;;;;;1.97;1.53;;;7.40;99.90;;;;;;5073515;28;20230;-58
2023/03/29 03:25:47;;;;;;;1.77;1.43;;;7.50;99.90;;;;;;5073512;28;20209;-58
2023/03/29 03:28:14;;;;;;;1.90;1.70;;;7.50;99.90;;;;;;5073192;28;20225;-58
2023/03/29 03:30:41;;;;;;;2.27;1.60;;;7.60;99.90;;;;;;5073873;28;20299;-58
2023/03/29 03:33:08;;;;;;;2.00;1.67;;;7.40;99.90;;;;;;5073321;28;20395;-58
2023/03/29 03:35:35;;;;;;;2.87;1.90;;;7.50;99.90;;;;;;5072997;28;20657;-58
2023/03/29 03:38:03;;;;;;;4.50;2.70;;;7.60;99.90;;;;;;5072312;28;20224;-58
2023/03/29 03:40:29;;;;;;;4.27;2.00;;;7.60;99.90;;;;;;5072462;28;20672;-58
2023/03/29 03:42:56;;;;;;;4.87;2.10;;;7.60;99.90;;;;;;5073004;28;20529;-58
2023/03/29 03:45:23;;;;;;;2.27;1.67;;;7.80;99.90;;;;;;5073070;28;20241;-58
2023/03/29 03:47:50;;;;;;;2.53;1.43;;;7.80;99.90;;;;;;5072482;28;20607;-58
2023/03/29 03:50:17;;;;;;;2.83;1.70;;;7.90;99.90;;;;;;5072567;28;20209;-58
2023/03/29 03:52:44;;;;;;;2.77;1.90;;;7.90;99.90;;;;;;5072796;28;20209;-58
2023/03/29 03:55:13;;;;;;;2.17;1.63;;;8.10;99.90;;;;;;5072403;28;20244;-58
2023/03/29 03:57:40;;;;;;;2.67;1.70;;;8.30;99.90;;;;;;5072321;28;20225;-58
2023/03/29 04:00:17;;;;;;;2.33;1.60;;;8.40;99.90;;;;;;5072250;28;20204;-58
2023/03/29 04:02:44;;;;;;;3.90;1.70;;;8.50;99.90;;;;;;5072482;28;20255;-58
2023/03/29 04:05:11;;;;;;;2.60;1.73;;;8.50;99.90;;;;;;5072196;28;20205;-58
2023/03/29 04:07:39;;;;;;;2.67;1.63;;;8.50;99.90;;;;;;5071440;28;20667;-57
2023/03/29 04:10:08;;;;;;;5.07;1.67;;;8.50;99.90;;;;;;5071930;28;20634;-57
2023/03/29 04:12:36;;;;;;;2.13;1.37;;;8.60;99.90;;;;;;5072273;28;20295;-58
2023/03/29 04:15:04;;;;;;;3.33;1.70;;;8.60;99.90;;;;;;5072099;28;20295;-59
2023/03/29 04:17:31;;;;;;;3.73;1.70;;;8.70;99.90;;;;;;5071933;28;20232;-58
2023/03/29 04:20:00;;;;;;;4.10;1.90;;;8.70;99.90;;;;;;5072141;28;20205;-57
2023/03/29 04:22:27;;;;;;;3.23;1.60;;;8.80;99.90;;;;;;5075597;28;20212;-57
2023/03/29 04:24:54;;;;;;;2.43;1.77;;;8.90;99.90;;;;;;5076021;28;20224;-57
2023/03/29 04:27:20;;;;;;;2.83;2.00;;;9.00;99.90;;;;;;5075862;28;20224;-57
2023/03/29 04:29:48;;;;;;;5.80;3.90;;;9.20;99.90;;;;;;5075340;28;21064;-58
2023/03/29 04:32:15;;;;;;;3.37;2.13;;;9.30;99.90;;;;;;5075705;28;20212;-57
2023/03/29 04:34:42;;;;;;;2.00;1.57;;;9.50;99.90;;;;;;5075433;28;20727;-57
2023/03/29 04:37:09;;;;;;;4.07;2.50;;;9.50;99.90;;;;;;5075576;28;20228;-58
2023/03/29 04:39:37;;;;;;;6.67;2.70;;;9.60;99.90;;;;;;5075525;28;20204;-58
2023/03/29 04:42:05;;;;;;;1.73;1.30;;;9.70;99.90;;;;;;5075750;28;20208;-58
2023/03/29 04:44:32;;;;;;;4.10;2.27;;;9.70;99.90;;;;;;5075495;28;20205;-59
2023/03/29 04:47:00;;;;;;;18.03;12.23;;;9.90;99.90;;;;;;5075547;28;20225;-57
2023/03/29 04:49:27;;;;;;;2.97;1.97;;;9.90;99.90;;;;;;5075100;28;20220;-57
2023/03/29 04:51:54;;;;;;;3.60;2.30;;;10.00;99.90;;;;;;5075564;28;20207;-58
2023/03/29 04:54:21;;;;;;;7.20;4.00;;;10.10;99.90;;;;;;5075348;28;20204;-58
2023/03/29 04:56:50;;;;;;;4.03;1.80;;;10.10;99.90;;;;;;5075023;28;20208;-57
2023/03/29 04:59:17;;;;;;;3.00;1.80;;;10.10;99.90;;;;;;5074737;28;20209;-57
2023/03/29 05:01:44;;;;;;;4.60;1.30;;;10.10;99.90;;;;;;5075413;28;20205;-58
2023/03/29 05:04:13;;;;;;;1.53;1.40;;;10.20;99.90;;;;;;5075212;28;20209;-58
2023/03/29 05:06:40;;;;;;;2.60;1.47;;;10.30;99.90;;;;;;5075615;28;20688;-57
2023/03/29 05:09:07;;;;;;;10.27;7.20;;;10.30;99.90;;;;;;5074591;28;20704;-57
2023/03/29 05:11:35;;;;;;;2.13;1.60;;;10.30;99.90;;;;;;5074817;28;20236;-58
2023/03/29 05:14:06;;;;;;;2.80;1.40;;;10.40;99.90;;;;;;5075023;28;20298;-58
2023/03/29 05:16:33;;;;;;;3.50;1.33;;;10.40;99.90;;;;;;5074704;28;20248;-58
2023/03/29 05:19:00;;;;;;;2.40;1.50;;;10.50;99.90;;;;;;5074687;28;20201;-57
2023/03/29 05:21:29;;;;;;;3.53;1.20;;;10.50;99.90;;;;;;5074815;28;20730;-58
2023/03/29 05:23:56;;;;;;;1.57;1.30;;;10.50;99.90;;;;;;5074706;28;20216;-58
2023/03/29 05:26:23;;;;;;;3.30;2.07;;;10.50;99.90;;;;;;5074650;28;20689;-57
2023/03/29 05:28:50;;;;;;;2.00;1.50;;;10.50;99.90;;;;;;5074241;28;20225;-58
2023/03/29 05:31:17;;;;;;;3.87;1.50;;;10.50;99.90;;;;;;5074238;28;20617;-58
2023/03/29 05:33:44;;;;;;;2.53;1.60;;;10.50;99.90;;;;;;5073907;28;20695;-58
2023/03/29 05:36:13;;;;;;;2.20;1.50;;;10.50;99.90;;;;;;5074457;28;20696;-58
2023/03/29 05:38:43;;;;;;;1.73;1.50;;;10.50;99.90;;;;;;5074270;28;20221;-57
2023/03/29 05:41:11;;;;;;;2.30;1.57;;;10.40;99.90;;;;;;5074340;28;20668;-58
2023/03/29 05:43:38;;;;;;;5.23;2.13;;;10.30;99.90;;;;;;5074250;28;20208;-57
2023/03/29 05:46:06;;;;;;;3.57;2.43;;;10.40;99.90;;;;;;5074414;28;20212;-58
2023/03/29 05:48:33;;;;;;;2.33;1.60;;;10.40;99.90;;;;;;5073981;28;20235;-58
2023/03/29 05:51:00;;;;;;;4.57;2.20;;;10.50;99.90;;;;;;5074268;28;20215;-58
2023/03/29 05:53:28;;;;;;;4.50;2.07;;;10.60;99.90;;;;;;5074122;28;20232;-58
2023/03/29 05:55:57;;;;;;;3.60;2.00;;;10.70;99.90;;;;;;5073839;28;20201;-57
2023/03/29 05:58:25;;;;;;;2.57;2.17;;;10.80;99.90;;;;;;5073649;28;20535;-57
2023/03/29 06:00:52;;;;;;;3.03;2.07;;;10.80;99.90;;;;;;5074077;28;20243;-57
2023/03/29 06:03:23;;;;;;;2.77;1.70;;;10.90;99.90;;;;;;5073940;28;20207;-57
2023/03/29 06:05:57;;;;;;;3.40;2.00;;;10.90;99.90;;;;;;5073692;28;20216;-57
2023/03/29 06:08:24;;;;;;;2.50;2.30;;;10.90;99.90;;;;;;5073174;28;20268;-57
2023/03/29 06:10:51;;;;;;;2.50;1.80;;;10.90;99.90;;;;;;5073645;28;20200;-57
2023/03/29 06:13:21;;;;;;;4.13;1.77;;;10.90;99.90;;;;;;5073449;28;20263;-57
2023/03/29 06:15:47;;;;;;;3.53;1.50;;;11.00;99.90;;;;;;5073419;28;20209;-57
2023/03/29 06:18:14;;;;;;;6.10;1.90;;;11.10;99.90;;;;;;5073239;28;20224;-57
2023/03/29 06:20:41;;;;;;;8.37;1.87;;;11.20;99.90;;;;;;5073318;28;20227;-57
2023/03/29 06:23:08;;;;;;;3.40;2.50;;;11.20;99.90;;;;;;5073086;28;20212;-57
2023/03/29 06:25:35;;;;;;;4.67;1.90;;;11.30;99.90;;;;;;5073526;28;20232;-57
2023/03/29 06:28:02;;;;;;;5.47;2.30;;;11.40;99.90;;;;;;5073052;28;20225;-58
2023/03/29 06:30:30;;;;;;;5.43;2.30;;;11.50;99.90;;;;;;5073416;28;20228;-57
2023/03/29 06:32:59;;;;;;;3.03;2.00;;;11.50;99.90;;;;;;5073413;28;20621;-57
2023/03/29 06:35:26;;;;;;;3.57;1.87;;;11.50;99.90;;;;;;5072958;28;20706;-57
2023/03/29 06:37:53;;;;;;;2.60;1.67;;;11.40;99.90;;;;;;5072700;28;20229;-57
2023/03/29 06:40:21;;;;;;;3.43;1.90;;;11.20;99.90;;;;;;5073202;28;20201;-57
2023/03/29 06:42:49;;;;;;;3.83;2.00;;;11.20;99.90;;;;;;5073020;28;20247;-57
2023/03/29 06:45:16;;;;;;;3.07;2.00;;;11.30;99.90;;;;;;5072782;28;20216;-57
2023/03/29 06:47:45;;;;;;;4.67;1.93;;;11.40;99.90;;;;;;5072675;28;20235;-57
2023/03/29 06:50:13;;;;;;;2.57;1.77;;;11.50;99.90;;;;;;5072404;28;20228;-57
2023/03/29 06:52:40;;;;;;;2.87;2.00;;;11.40;99.90;;;;;;5072605;28;20208;-57
2023/03/29 06:55:08;;;;;;;4.10;1.90;;;11.40;99.90;;;;;;5073052;28;20300;-57
2023/03/29 06:57:35;;;;;;;4.37;1.90;;;11.40;99.90;;;;;;5072668;28;20229;-57
2023/03/29 07:00:11;;;;;;;5.37;2.10;;;11.50;99.90;;;;;;5072811;28;20235;-56
2023/03/29 07:02:39;;;;;;;3.47;2.10;;;11.70;99.90;;;;;;5072850;28;20208;-57
2023/03/29 07:05:10;;;;;;;4.33;2.60;;;11.70;99.90;;;;;;5072976;28;20205;-57
2023/03/29 07:07:52;;;;;;;4.27;2.00;;;11.60;99.90;;;;;;5072570;28;20588;-57
2023/03/29 07:10:20;;;;;;;3.50;1.90;;;11.80;99.90;;;;;;5072303;28;20769;-57
2023/03/29 07:12:47;;;;;;;4.47;1.87;;;11.90;99.90;;;;;;5072557;28;20201;-57
2023/03/29 07:15:14;;;;;;;4.43;2.23;;;12.10;99.90;;;;;;5072376;28;20207;-57
2023/03/29 07:17:41;;;;;;;6.17;2.67;;;12.20;99.90;;;;;;5072467;28;20307;-57
2023/03/29 07:20:12;;;;;;;4.17;2.40;;;12.40;99.90;;;;;;5072381;28;20205;-58
2023/03/29 07:22:40;;;;;;;3.93;2.20;;;12.50;99.90;;;;;;5072425;28;20205;-58
2023/03/29 07:25:08;;;;;;;2.63;1.87;;;12.60;99.90;;;;;;5072448;28;20647;-57
2023/03/29 07:27:35;;;;;;;2.53;1.83;;;12.80;99.90;;;;;;5072178;28;20224;-57
2023/03/29 07:30:02;;;;;;;3.43;1.87;;;13.00;99.90;;;;;;5072097;28;20316;-57
2023/03/29 07:32:30;;;;;;;6.27;2.23;;;13.20;99.90;;;;;;5072535;28;20209;-57
2023/03/29 07:34:57;;;;;;;4.80;2.10;;;13.30;99.90;;;;;;5072273;28;20208;-57
2023/03/29 07:37:25;;;;;;;4.63;2.30;;;13.40;99.90;;;;;;5072037;28;20232;-57
2023/03/29 07:39:52;;;;;;;6.57;2.50;;;13.40;99.90;;;;;;5071849;28;20223;-57
2023/03/29 07:42:19;;;;;;;3.03;2.23;;;13.50;99.90;;;;;;5071785;28;20209;-60
2023/03/29 07:44:47;;;;;;;5.83;2.47;;;13.60;99.90;;;;;;5072199;28;20215;-60
2023/03/29 07:47:14;;;;;;;11.23;7.03;;;13.80;99.90;;;;;;5072038;28;20254;-58
2023/03/29 07:49:41;;;;;;;6.87;2.90;;;14.00;99.90;;;;;;5071597;28;20700;-58
2023/03/29 07:52:08;;;;;;;5.47;2.37;;;14.00;99.90;;;;;;5072109;28;20204;-58
2023/03/29 07:54:36;;;;;;;4.90;2.50;;;13.90;99.90;;;;;;5071744;28;20219;-57
2023/03/29 07:57:03;;;;;;;4.13;2.17;;;13.80;99.90;;;;;;5071589;28;20225;-57
2023/03/29 07:59:30;;;;;;;3.33;2.10;;;13.80;99.90;;;;;;5071453;28;20687;-57
2023/03/29 08:01:57;;;;;;;5.63;2.50;;;13.80;99.90;;;;;;5072116;28;20201;-57
2023/03/29 08:04:23;;;;;;;7.20;2.30;;;13.60;99.90;;;;;;5072048;28;20205;-57
2023/03/29 08:06:51;;;;;;;4.47;2.20;;;13.60;99.90;;;;;;5071424;28;20558;-57
2023/03/29 08:09:17;;;;;;;3.37;2.00;;;13.80;99.90;;;;;;5071879;28;20209;-57
2023/03/29 08:11:46;;;;;;;3.17;2.00;;;14.10;99.90;;;;;;5071885;28;20201;-57
2023/03/29 08:14:12;;;;;;;4.83;2.00;;;14.40;99.90;;;;;;5071747;28;20259;-61
2023/03/29 08:16:39;;;;;;;7.23;1.87;;;14.60;99.90;;;;;;5071574;28;20208;-59
2023/03/29 08:19:06;;;;;;;2.73;1.80;;;14.90;99.20;;;;;;5071689;28;20208;-58
2023/03/29 08:21:33;;;;;;;7.87;1.90;;;15.10;98.70;;;;;;5071715;28;20201;-58
2023/03/29 08:24:00;;;;;;;7.80;2.30;;;15.30;98.20;;;;;;5071544;28;20699;-58
2023/03/29 08:26:26;;;;;;;6.30;3.17;;;15.30;97.80;;;;;;5071847;28;20227;-58
2023/03/29 08:28:55;;;;;;;5.30;2.17;;;15.40;97.60;;;;;;5071382;28;20225;-59
2023/03/29 08:31:22;;;;;;;2.37;1.37;;;15.50;97.30;;;;;;5071753;28;20235;-58
2023/03/29 08:33:49;;;;;;;4.07;1.73;;;15.60;96.50;;;;;;5071817;28;20216;-58
2023/03/29 08:36:15;;;;;;;2.30;1.40;;;15.70;96.40;;;;;;5071588;28;20205;-58
2023/03/29 08:38:42;;;;;;;2.53;1.40;;;15.80;95.80;;;;;;5071122;28;20229;-57
2023/03/29 08:41:27;;;;;;;2.97;1.60;;;15.80;95.90;;;;;;5071710;28;20227;-58
2023/03/29 08:44:09;;;;;;;3.80;1.25;;;16.10;95.30;;;;;;5070704;28;20215;-57
2023/03/29 08:46:44;;;;;;;4.47;1.50;;;16.40;94.80;;;;;;5071699;28;20196;-58
2023/03/29 08:49:12;;;;;;;4.28;1.45;;;16.70;94.50;;;;;;5071204;28;20212;-58
2023/03/29 08:51:45;;;;;;;4.38;1.45;;;16.90;93.80;;;;;;5071827;28;20262;-58
2023/03/29 08:54:16;;;;;;;4.60;1.48;;;17.00;93.30;;;;;;5071680;28;20291;-58
2023/03/29 08:56:44;;;;;;;5.33;2.20;;;17.00;93.10;;;;;;5071476;28;20669;-58
2023/03/29 08:59:20;;;;;;;6.85;1.50;;;16.90;93.10;;;;;;5071505;28;20231;-59
2023/03/29 09:01:49;;;;;;;4.95;1.13;;;16.70;93.40;;;;;;5071901;28;20213;-58
2023/03/29 09:04:20;;;;;;;5.72;1.52;;;16.50;93.10;;;;;;5071446;28;20204;-58
2023/03/29 09:06:47;;;;;;;3.42;1.70;;;16.40;93.20;;;;;;5071562;28;20575;-58
2023/03/29 09:09:17;;;;;;;4.25;1.60;;;16.30;93.60;;;;;;5089190;22;20410;-61
2023/03/29 09:11:58;;;;;;;2.15;1.20;;;16.30;93.60;;;;;;5066768;28;20743;-62
2023/03/29 09:14:39;;;;;;;3.83;1.60;;;16.60;93.10;;;;;;5074881;28;20212;-61
2023/03/29 09:17:13;;;;;;;1.60;1.30;;;16.80;92.50;;;;;;5074787;28;20288;-62
2023/03/29 09:19:45;;;;;;;4.97;1.42;;;17.10;92.10;;;;;;5074262;28;20201;-62
2023/03/29 09:22:22;;;;;;;3.20;1.65;;;17.30;91.90;;;;;;5074573;28;20216;-62
2023/03/29 09:25:05;;;;;;;3.53;1.55;;;17.50;91.20;;;;;;5072548;28;20251;-61
2023/03/29 09:27:37;;;;;;;3.58;1.27;;;17.80;90.70;;;;;;5072946;28;20232;-61
2023/03/29 09:30:20;;;;;;;3.72;1.30;;;18.30;89.90;;;;;;5073313;28;20315;-62
2023/03/29 09:32:51;;;;;;;2.35;1.23;;;18.70;88.40;;;;;;5073961;28;20281;-61
2023/03/29 09:35:22;;;;;;;4.18;1.50;;;18.60;88.10;;;;;;5073753;28;20215;-62
2023/03/29 09:37:52;;;;;;;3.13;1.45;;;18.70;87.70;;;;;;5072955;28;20232;-62
2023/03/29 09:40:22;;;;;;;5.55;1.50;;;18.70;86.90;;;;;;5073392;28;20227;-61
2023/03/29 09:42:51;;;;;;;3.40;1.67;;;18.90;86.40;;;;;;5073115;28;20212;-65
2023/03/29 09:45:19;;;;;;;2.85;1.60;;;19.30;85.80;;;;;;5073721;28;20227;-65
2023/03/29 09:47:51;;;;;;;3.30;1.45;;;19.60;84.70;;;;;;5072890;28;20231;-64
2023/03/29 09:50:21;;;;;;;3.10;1.40;;;19.80;83.70;;;;;;5072966;28;20232;-64
2023/03/29 09:52:49;;;;;;;3.25;1.30;;;19.80;81.80;;;;;;5073561;28;20687;-66
2023/03/29 09:55:26;;;;;;;2.03;1.23;;;19.80;82.50;;;;;;5073361;28;20201;-66
2023/03/29 09:57:52;;;;;;;4.57;3.60;;;19.80;81.80;;;;;;5072927;28;20224;-65
2023/03/29 10:00:21;;;;;;;3.63;1.50;;;19.80;81.80;;;;;;5073108;28;20216;-65
2023/03/29 10:02:52;;;;;;;4.72;1.27;;;19.90;81.30;;;;;;5073077;28;20211;-65
2023/03/29 10:05:19;;;;;;;2.25;1.27;;;20.00;80.20;;;;;;5072975;28;20236;-65
2023/03/29 10:07:50;;;;;;;2.05;1.40;;;20.00;80.10;;;;;;5072647;28;20243;-65
2023/03/29 10:10:23;;;;;;;1.95;1.13;;;20.10;79.50;;;;;;5072617;28;20225;-64
2023/03/29 10:12:53;;;;;;;2.17;1.48;;;20.30;78.80;;;;;;5072926;28;20212;-65
2023/03/29 10:15:22;;;;;;;3.00;1.40;;;20.40;78.20;;;;;;5072930;28;20201;-66
2023/03/29 10:17:49;;;;;;;2.83;1.08;;;20.50;78.00;;;;;;5072508;28;20221;-65
2023/03/29 10:20:18;;;;;;;4.90;1.80;;;20.60;77.00;;;;;;5075094;28;20229;-66
2023/03/29 10:22:49;;;;;;;3.85;1.60;;;20.90;76.80;;;;;;5073974;28;20622;-64
2023/03/29 10:25:18;;;;;;;2.95;1.80;;;21.20;75.20;;;;;;5072693;28;20660;-63
2023/03/29 10:27:46;;;;;;;4.50;1.83;;;21.50;74.70;;;;;;5072430;28;20374;-63
2023/03/29 10:30:21;;;;;;;3.20;1.70;;;21.60;74.10;;;;;;5072538;28;20225;-64
2023/03/29 10:32:55;;;;;;;5.88;1.75;;;21.70;73.70;;;;;;5072524;28;20211;-63
2023/03/29 10:35:24;;;;;;;1.70;1.02;;;21.70;71.10;;;;;;5073193;28;20302;-64
2023/03/29 10:37:55;;;;;;;2.13;1.42;;;21.50;70.70;;;;;;5071851;28;20278;-65
2023/03/29 10:40:27;;;;;;;3.25;1.58;;;21.20;71.50;;;;;;5072052;28;20236;-65
2023/03/29 10:42:58;;;;;;;2.60;1.70;;;21.10;71.40;;;;;;5073201;28;20254;-63
2023/03/29 10:45:27;;;;;;;1.70;0.95;;;21.20;71.50;;;;;;5072926;28;20209;-63
2023/03/29 10:47:56;;;;;;;3.13;1.42;;;21.30;70.40;;;;;;5072730;28;20235;-63
2023/03/29 10:50:23;;;;;;;4.95;1.40;;;21.20;70.30;;;;;;5072618;28;20719;-62
2023/03/29 10:52:50;;;;;;;2.20;1.33;;;21.30;70.10;;;;;;5073202;28;20209;-63
2023/03/29 10:55:18;;;;;;;3.13;1.60;;;21.30;70.60;;;;;;5073873;28;20204;-62
2023/03/29 10:57:52;;;;;;;1.80;1.27;;;21.30;70.10;;;;;;5072925;28;20224;-63
2023/03/29 11:00:26;;;;;;;2.60;1.40;;;21.20;70.00;;;;;;5076733;28;20204;-62
2023/03/29 11:03:20;;;;;;;4.15;1.50;;;21.10;69.80;;;;;;5075296;28;20220;-63
2023/03/29 11:05:53;;;;;;;2.03;1.40;;;21.10;69.30;;;;;;5074110;28;20582;-63
2023/03/29 11:08:33;;;;;;;4.15;1.20;;;21.00;69.90;;;;;;5074313;28;20239;-63
2023/03/29 11:11:13;;;;;;;7.47;2.47;;;21.00;70.80;;;;;;5074849;28;20224;-63
2023/03/29 11:13:47;;;;;;;4.97;1.65;;;21.10;70.50;;;;;;5073175;28;20208;-63
2023/03/29 11:16:24;;;;;;;2.10;1.30;;;21.10;69.90;;;;;;5074441;28;20215;-63
2023/03/29 11:19:36;;;;;;;2.67;1.15;;;21.30;70.20;;;;;;5072455;28;20224;-63
2023/03/29 11:22:09;;;;;;;2.55;1.55;;;21.30;69.60;;;;;;4968676;28;20204;-62
2023/03/29 11:24:49;;;;;;;2.60;1.40;;;21.10;70.10;;;;;;5063014;28;20690;-63
2023/03/29 11:27:26;;;;;;;4.47;1.38;;;20.90;70.30;;;;;;5072336;28;20211;-63
2023/03/29 11:30:05;;;;;;;2.17;1.25;;;20.80;71.20;;;;;;5071828;28;20244;-63
2023/03/29 11:32:40;;;;;;;1.98;1.20;;;20.60;70.90;;;;;;5072764;28;20286;-63
2023/03/29 11:35:23;;;;;;;2.55;1.17;;;20.40;71.90;;;;;;5073751;28;20587;-63
2023/03/29 11:37:59;;;;;;;2.85;1.50;;;20.30;72.30;;;;;;5073235;28;20271;-63
2023/03/29 11:40:43;;;;;;;3.42;1.33;;;20.40;72.00;;;;;;5073054;28;20204;-64
2023/03/29 11:43:15;;;;;;;6.05;1.80;;;20.50;71.60;;;;;;5072823;28;20204;-63
2023/03/29 11:45:49;;;;;;;4.43;1.70;;;20.40;72.40;;;;;;5072225;28;20609;-64
2023/03/29 11:48:22;;;;;;;4.72;1.50;;;20.40;71.60;;;;;;5072209;28;20229;-61
2023/03/29 11:50:55;;;;;;;1.95;1.40;;;20.40;72.00;;;;;;5073196;28;20584;-62
2023/03/29 11:53:28;;;;;;;4.07;1.60;;;20.60;71.70;;;;;;5072877;28;20206;-61
2023/03/29 11:55:56;;;;;;;3.13;1.77;;;20.90;70.80;;;;;;5071845;28;20669;-63
2023/03/29 11:58:30;;;;;;;2.40;1.50;;;20.90;71.80;;;;;;5071622;28;20221;-63
2023/03/29 12:01:01;;;;;;;4.65;1.20;;;20.90;71.40;;;;;;5072182;28;20204;-63
2023/03/29 12:03:37;;;;;;;1.90;1.38;;;21.20;70.70;;;;;;5072510;28;20216;-63
2023/03/29 12:06:11;;;;;;;2.65;1.50;;;21.50;70.20;;;;;;5072355;28;20227;-63
2023/03/29 12:08:44;;;;;;;2.13;1.30;;;21.90;69.70;;;;;;5073957;28;20251;-64
2023/03/29 12:11:19;;;;;;;2.63;1.40;;;22.00;69.50;;;;;;5072090;28;20734;-63
2023/03/29 12:13:51;;;;;;;2.65;1.35;;;22.00;69.30;;;;;;5074764;28;20216;-64
2023/03/29 12:16:22;;;;;;;2.75;1.60;;;22.20;68.70;;;;;;5072813;28;20238;-62
2023/03/29 12:18:52;;;;;;;2.17;1.52;;;22.10;69.20;;;;;;5073588;28;20236;-62
2023/03/29 12:21:21;;;;;;;3.38;1.40;;;22.00;69.50;;;;;;5072152;28;20668;-62
2023/03/29 12:23:50;;;;;;;2.15;1.50;;;22.00;69.70;;;;;;5071507;28;20209;-62
2023/03/29 12:26:32;;;;;;;1.75;1.15;;;21.90;69.50;;;;;;5071355;28;20578;-64
2023/03/29 12:29:14;;;;;;;2.88;1.40;;;21.50;70.30;;;;;;5071342;28;20236;-62
2023/03/29 12:31:48;;;;;;;4.07;1.45;;;21.30;71.00;;;;;;5071498;28;20220;-63
2023/03/29 12:34:36;;;;;;;4.35;1.48;;;21.40;70.40;;;;;;5071913;28;20236;-63
2023/03/29 12:37:17;;;;;;;4.28;1.55;;;21.50;70.40;;;;;;5071804;28;20208;-63
2023/03/29 12:39:45;;;;;;;3.25;1.30;;;21.60;70.00;;;;;;5071022;28;20664;-63
2023/03/29 12:42:16;;;;;;;3.42;1.33;;;21.70;69.20;;;;;;5073997;28;20208;-63
2023/03/29 12:44:49;;;;;;;2.58;1.40;;;21.40;70.10;;;;;;5075560;28;20212;-63
2023/03/29 12:47:22;;;;;;;2.83;1.60;;;21.10;70.50;;;;;;5075174;28;20206;-63
2023/03/29 12:49:52;;;;;;;2.75;1.50;;;20.70;71.60;;;;;;5075098;28;20217;-62
2023/03/29 12:52:26;;;;;;;1.98;1.30;;;20.60;71.60;;;;;;5075092;28;20224;-63
2023/03/29 12:54:57;;;;;;;2.47;1.52;;;20.80;71.90;;;;;;5075283;28;20228;-63
2023/03/29 12:57:28;;;;;;;2.70;1.50;;;20.90;72.80;;;;;;5075377;28;20201;-63
2023/03/29 12:59:55;;;;;;;3.75;1.80;;;20.70;73.20;;;;;;5074909;28;20209;-63
2023/03/29 13:02:35;;;;;;;2.17;1.50;;;20.60;73.50;;;;;;5074603;28;20667;-63
2023/03/29 13:05:04;;;;;;;3.55;1.63;;;20.40;74.40;;;;;;5074671;28;20215;-63